Weather at Fife Lake Seaplane Base [CLOSED]

Public forecast

Using degrees Fahrenheit for public forecast. Weather courtesy of forecast.io.

Closest aviation weather report (METAR) to Fife Lake Seaplane Base

Closest report is Cherry Capital Airport, 14.6 nm (27.0 km) NW. Retrieved 2021/10/28 13:53 UTC (11 minutes ago):

KTVC 281353Z 08004KT 10SM FEW020 BKN250 13/08 A2983 RMK AO2 SLP101 T01280083

Closest aviation forecast (TAF) to Fife Lake Seaplane Base

Closest forecast is Cherry Capital Airport, 14.6 nm (27.0 km) NW. Retrieved 2021/10/28 12:36 UTC (1 hour ago):

TAF KTVC 281135Z 2812/2912 VRB04KT P6SM OVC015 FM281500 09007KT P6SM OVC026 FM281600 09007KT P6SM BKN050 FM290600 VRB04KT P6SM BKN070 FM290900 VRB04KT P6SM BKN030